sensor_id;sensor_type;location;lat;lon;timestamp;P1;durP1;ratioP1;P2;durP2;ratioP2
64210;SDS011;50528;48.514;14.394;2023-02-18T00:00:05;5.10;;;3.20;;
64210;SDS011;50528;48.514;14.394;2023-02-18T00:00:46;3.90;;;3.00;;
64210;SDS011;50528;48.514;14.394;2023-02-18T00:01:25;4.40;;;3.40;;
64210;SDS011;50528;48.514;14.394;2023-02-18T00:01:59;4.80;;;3.70;;
64210;SDS011;50528;48.514;14.394;2023-02-18T00:02:33;4.70;;;3.50;;
64210;SDS011;50528;48.514;14.394;2023-02-18T00:03:07;4.60;;;3.70;;
64210;SDS011;50528;48.514;14.394;2023-02-18T00:03:41;5.10;;;3.60;;
64210;SDS011;50528;48.514;14.394;2023-02-18T00:04:14;5.00;;;3.40;;
64210;SDS011;50528;48.514;14.394;2023-02-18T00:04:48;4.50;;;3.40;;
64210;SDS011;50528;48.514;14.394;2023-02-18T00:05:22;5.10;;;3.00;;
64210;SDS011;50528;48.514;14.394;2023-02-18T00:05:56;4.40;;;3.20;;
64210;SDS011;50528;48.514;14.394;2023-02-18T00:06:31;3.90;;;3.10;;
64210;SDS011;50528;48.514;14.394;2023-02-18T00:07:07;4.80;;;3.40;;
64210;SDS011;50528;48.514;14.394;2023-02-18T00:07:41;4.10;;;3.10;;
64210;SDS011;50528;48.514;14.394;2023-02-18T00:08:15;3.60;;;3.00;;
64210;SDS011;50528;48.514;14.394;2023-02-18T00:08:49;4.50;;;3.20;;
64210;SDS011;50528;48.514;14.394;2023-02-18T00:09:23;3.30;;;2.60;;
64210;SDS011;50528;48.514;14.394;2023-02-18T00:09:57;5.40;;;3.20;;
64210;SDS011;50528;48.514;14.394;2023-02-18T00:10:31;4.80;;;3.20;;
64210;SDS011;50528;48.514;14.394;2023-02-18T00:11:05;4.30;;;3.00;;
64210;SDS011;50528;48.514;14.394;2023-02-18T00:11:39;4.00;;;3.00;;
64210;SDS011;50528;48.514;14.394;2023-02-18T00:12:12;5.80;;;2.70;;
64210;SDS011;50528;48.514;14.394;2023-02-18T00:12:46;4.70;;;3.30;;
64210;SDS011;50528;48.514;14.394;2023-02-18T00:13:21;5.80;;;3.20;;
64210;SDS011;50528;48.514;14.394;2023-02-18T00:13:56;4.20;;;3.10;;
64210;SDS011;50528;48.514;14.394;2023-02-18T00:14:32;3.60;;;2.60;;
64210;SDS011;50528;48.514;14.394;2023-02-18T00:15:05;3.80;;;3.00;;
64210;SDS011;50528;48.514;14.394;2023-02-18T00:15:40;3.80;;;3.00;;
64210;SDS011;50528;48.514;14.394;2023-02-18T00:16:13;3.90;;;2.90;;
64210;SDS011;50528;48.514;14.394;2023-02-18T00:16:47;3.80;;;2.80;;
64210;SDS011;50528;48.514;14.394;2023-02-18T00:17:21;3.60;;;2.80;;
64210;SDS011;50528;48.514;14.394;2023-02-18T00:17:54;3.60;;;2.70;;
64210;SDS011;50528;48.514;14.394;2023-02-18T00:18:28;3.70;;;2.70;;
64210;SDS011;50528;48.514;14.394;2023-02-18T00:19:03;3.90;;;2.80;;
64210;SDS011;50528;48.514;14.394;2023-02-18T00:19:38;3.60;;;2.80;;
64210;SDS011;50528;48.514;14.394;2023-02-18T00:20:12;4.50;;;3.00;;
64210;SDS011;50528;48.514;14.394;2023-02-18T00:20:45;4.50;;;2.90;;
64210;SDS011;50528;48.514;14.394;2023-02-18T00:21:19;3.90;;;3.10;;
64210;SDS011;50528;48.514;14.394;2023-02-18T00:21:53;3.90;;;3.00;;
64210;SDS011;50528;48.514;14.394;2023-02-18T00:22:26;4.20;;;3.00;;
64210;SDS011;50528;48.514;14.394;2023-02-18T00:23:01;4.60;;;3.00;;
64210;SDS011;50528;48.514;14.394;2023-02-18T00:23:35;3.70;;;2.70;;
64210;SDS011;50528;48.514;14.394;2023-02-18T00:24:10;3.30;;;2.50;;
64210;SDS011;50528;48.514;14.394;2023-02-18T00:24:48;3.30;;;2.60;;
64210;SDS011;50528;48.514;14.394;2023-02-18T00:25:22;3.70;;;2.60;;
64210;SDS011;50528;48.514;14.394;2023-02-18T00:26:03;4.50;;;2.60;;
64210;SDS011;50528;48.514;14.394;2023-02-18T00:26:40;4.10;;;2.70;;
64210;SDS011;50528;48.514;14.394;2023-02-18T00:27:14;3.20;;;2.30;;
64210;SDS011;50528;48.514;14.394;2023-02-18T00:27:48;4.20;;;2.50;;
64210;SDS011;50528;48.514;14.394;2023-02-18T00:28:21;3.40;;;2.50;;
64210;SDS011;50528;48.514;14.394;2023-02-18T00:28:55;3.60;;;2.60;;
64210;SDS011;50528;48.514;14.394;2023-02-18T00:29:28;3.30;;;2.20;;
64210;SDS011;50528;48.514;14.394;2023-02-18T00:30:02;4.40;;;2.50;;
64210;SDS011;50528;48.514;14.394;2023-02-18T00:30:40;3.60;;;2.60;;
64210;SDS011;50528;48.514;14.394;2023-02-18T00:31:16;4.90;;;2.80;;
64210;SDS011;50528;48.514;14.394;2023-02-18T00:31:51;3.40;;;2.40;;
64210;SDS011;50528;48.514;14.394;2023-02-18T00:32:26;3.20;;;2.60;;
64210;SDS011;50528;48.514;14.394;2023-02-18T00:33:01;3.30;;;2.60;;
64210;SDS011;50528;48.514;14.394;2023-02-18T00:33:34;3.80;;;2.90;;
64210;SDS011;50528;48.514;14.394;2023-02-18T00:34:08;3.50;;;2.60;;
64210;SDS011;50528;48.514;14.394;2023-02-18T00:34:43;5.60;;;2.70;;
64210;SDS011;50528;48.514;14.394;2023-02-18T00:35:17;3.70;;;2.70;;
64210;SDS011;50528;48.514;14.394;2023-02-18T00:35:50;3.50;;;2.60;;
64210;SDS011;50528;48.514;14.394;2023-02-18T00:36:24;3.80;;;2.60;;
64210;SDS011;50528;48.514;14.394;2023-02-18T00:36:58;3.00;;;2.20;;
64210;SDS011;50528;48.514;14.394;2023-02-18T00:37:32;3.60;;;2.20;;
64210;SDS011;50528;48.514;14.394;2023-02-18T00:38:07;3.60;;;2.70;;
64210;SDS011;50528;48.514;14.394;2023-02-18T00:38:48;3.40;;;2.40;;
64210;SDS011;50528;48.514;14.394;2023-02-18T00:39:25;3.30;;;2.60;;
64210;SDS011;50528;48.514;14.394;2023-02-18T00:39:58;3.20;;;2.40;;
64210;SDS011;50528;48.514;14.394;2023-02-18T00:40:32;4.90;;;2.70;;
64210;SDS011;50528;48.514;14.394;2023-02-18T00:41:10;3.30;;;2.50;;
64210;SDS011;50528;48.514;14.394;2023-02-18T00:41:44;3.10;;;2.10;;
64210;SDS011;50528;48.514;14.394;2023-02-18T00:42:20;4.10;;;2.50;;
64210;SDS011;50528;48.514;14.394;2023-02-18T00:42:53;2.90;;;2.20;;
64210;SDS011;50528;48.514;14.394;2023-02-18T00:43:27;3.00;;;2.20;;
64210;SDS011;50528;48.514;14.394;2023-02-18T00:44:01;3.40;;;2.40;;
64210;SDS011;50528;48.514;14.394;2023-02-18T00:44:35;3.20;;;1.90;;
64210;SDS011;50528;48.514;14.394;2023-02-18T00:45:08;3.50;;;2.20;;
64210;SDS011;50528;48.514;14.394;2023-02-18T00:45:42;2.80;;;2.20;;
64210;SDS011;50528;48.514;14.394;2023-02-18T00:46:16;3.90;;;2.40;;
64210;SDS011;50528;48.514;14.394;2023-02-18T00:46:49;3.20;;;2.30;;
64210;SDS011;50528;48.514;14.394;2023-02-18T00:47:23;3.50;;;2.10;;
64210;SDS011;50528;48.514;14.394;2023-02-18T00:47:58;4.30;;;2.30;;
64210;SDS011;50528;48.514;14.394;2023-02-18T00:48:33;3.30;;;2.20;;
64210;SDS011;50528;48.514;14.394;2023-02-18T00:49:07;3.10;;;2.20;;
64210;SDS011;50528;48.514;14.394;2023-02-18T00:49:41;3.50;;;2.40;;
64210;SDS011;50528;48.514;14.394;2023-02-18T00:50:15;3.30;;;2.10;;
64210;SDS011;50528;48.514;14.394;2023-02-18T00:50:49;3.20;;;2.00;;
64210;SDS011;50528;48.514;14.394;2023-02-18T00:51:23;3.40;;;2.50;;
64210;SDS011;50528;48.514;14.394;2023-02-18T00:51:57;3.30;;;2.30;;
64210;SDS011;50528;48.514;14.394;2023-02-18T00:52:31;3.30;;;2.30;;
64210;SDS011;50528;48.514;14.394;2023-02-18T00:53:05;2.90;;;2.10;;
64210;SDS011;50528;48.514;14.394;2023-02-18T00:53:39;3.30;;;2.20;;
64210;SDS011;50528;48.514;14.394;2023-02-18T00:54:13;2.80;;;2.30;;
64210;SDS011;50528;48.514;14.394;2023-02-18T00:54:47;2.00;;;1.20;;
64210;SDS011;50528;48.514;14.394;2023-02-18T00:55:20;3.20;;;2.20;;
64210;SDS011;50528;48.514;14.394;2023-02-18T00:55:54;2.70;;;2.10;;
64210;SDS011;50528;48.514;14.394;2023-02-18T00:56:28;2.90;;;2.00;;
64210;SDS011;50528;48.514;14.394;2023-02-18T00:57:02;4.00;;;2.30;;
64210;SDS011;50528;48.514;14.394;2023-02-18T00:57:35;3.00;;;2.30;;
64210;SDS011;50528;48.514;14.394;2023-02-18T00:58:09;3.10;;;2.00;;
64210;SDS011;50528;48.514;14.394;2023-02-18T00:58:44;3.20;;;2.40;;
64210;SDS011;50528;48.514;14.394;2023-02-18T00:59:18;2.80;;;1.80;;
64210;SDS011;50528;48.514;14.394;2023-02-18T00:59:51;3.20;;;2.20;;
64210;SDS011;50528;48.514;14.394;2023-02-18T01:00:25;2.80;;;2.00;;
64210;SDS011;50528;48.514;14.394;2023-02-18T01:00:59;3.10;;;1.70;;
64210;SDS011;50528;48.514;14.394;2023-02-18T01:01:33;3.10;;;2.20;;
64210;SDS011;50528;48.514;14.394;2023-02-18T01:02:07;2.80;;;2.20;;
64210;SDS011;50528;48.514;14.394;2023-02-18T01:02:41;3.50;;;2.10;;
64210;SDS011;50528;48.514;14.394;2023-02-18T01:03:15;2.80;;;2.30;;
64210;SDS011;50528;48.514;14.394;2023-02-18T01:03:49;3.10;;;2.50;;
64210;SDS011;50528;48.514;14.394;2023-02-18T01:04:23;3.40;;;1.70;;
64210;SDS011;50528;48.514;14.394;2023-02-18T01:04:57;3.60;;;2.00;;
64210;SDS011;50528;48.514;14.394;2023-02-18T01:05:30;3.50;;;2.30;;
64210;SDS011;50528;48.514;14.394;2023-02-18T01:06:06;3.50;;;2.40;;
64210;SDS011;50528;48.514;14.394;2023-02-18T01:06:41;3.60;;;2.00;;
64210;SDS011;50528;48.514;14.394;2023-02-18T01:07:15;3.30;;;2.30;;
64210;SDS011;50528;48.514;14.394;2023-02-18T01:07:49;3.10;;;2.10;;
64210;SDS011;50528;48.514;14.394;2023-02-18T01:08:24;3.30;;;2.30;;
64210;SDS011;50528;48.514;14.394;2023-02-18T01:08:57;3.20;;;2.30;;
64210;SDS011;50528;48.514;14.394;2023-02-18T01:09:32;2.90;;;2.10;;
64210;SDS011;50528;48.514;14.394;2023-02-18T01:10:09;2.90;;;1.80;;
64210;SDS011;50528;48.514;14.394;2023-02-18T01:10:45;2.70;;;1.80;;
64210;SDS011;50528;48.514;14.394;2023-02-18T01:11:20;3.20;;;2.30;;
64210;SDS011;50528;48.514;14.394;2023-02-18T01:11:56;3.20;;;2.30;;
64210;SDS011;50528;48.514;14.394;2023-02-18T01:12:29;3.00;;;2.30;;
64210;SDS011;50528;48.514;14.394;2023-02-18T01:13:05;2.90;;;2.30;;
64210;SDS011;50528;48.514;14.394;2023-02-18T01:13:43;3.50;;;2.50;;
64210;SDS011;50528;48.514;14.394;2023-02-18T01:14:18;3.50;;;2.30;;
64210;SDS011;50528;48.514;14.394;2023-02-18T01:14:52;3.80;;;2.10;;
64210;SDS011;50528;48.514;14.394;2023-02-18T01:15:26;3.40;;;2.10;;
64210;SDS011;50528;48.514;14.394;2023-02-18T01:15:59;3.30;;;2.50;;
64210;SDS011;50528;48.514;14.394;2023-02-18T01:16:34;2.60;;;1.80;;
64210;SDS011;50528;48.514;14.394;2023-02-18T01:17:08;3.50;;;2.30;;
64210;SDS011;50528;48.514;14.394;2023-02-18T01:17:44;3.40;;;2.20;;
64210;SDS011;50528;48.514;14.394;2023-02-18T01:18:17;3.10;;;2.10;;
64210;SDS011;50528;48.514;14.394;2023-02-18T01:18:52;2.50;;;2.00;;
64210;SDS011;50528;48.514;14.394;2023-02-18T01:19:25;3.30;;;2.20;;
64210;SDS011;50528;48.514;14.394;2023-02-18T01:19:59;2.70;;;2.10;;
64210;SDS011;50528;48.514;14.394;2023-02-18T01:20:33;2.60;;;1.90;;
64210;SDS011;50528;48.514;14.394;2023-02-18T01:21:07;2.70;;;2.10;;
64210;SDS011;50528;48.514;14.394;2023-02-18T01:21:42;3.20;;;2.10;;
64210;SDS011;50528;48.514;14.394;2023-02-18T01:22:15;2.90;;;1.70;;
64210;SDS011;50528;48.514;14.394;2023-02-18T01:22:49;3.50;;;2.20;;
64210;SDS011;50528;48.514;14.394;2023-02-18T01:23:22;2.60;;;2.00;;
64210;SDS011;50528;48.514;14.394;2023-02-18T01:23:57;2.90;;;2.20;;
64210;SDS011;50528;48.514;14.394;2023-02-18T01:24:31;3.50;;;2.50;;
64210;SDS011;50528;48.514;14.394;2023-02-18T01:25:05;2.70;;;2.00;;
64210;SDS011;50528;48.514;14.394;2023-02-18T01:25:40;2.80;;;2.00;;
64210;SDS011;50528;48.514;14.394;2023-02-18T01:26:14;3.00;;;2.20;;
64210;SDS011;50528;48.514;14.394;2023-02-18T01:26:48;3.10;;;2.00;;
64210;SDS011;50528;48.514;14.394;2023-02-18T01:27:22;2.60;;;1.90;;
64210;SDS011;50528;48.514;14.394;2023-02-18T01:27:55;3.10;;;2.30;;
64210;SDS011;50528;48.514;14.394;2023-02-18T01:28:29;2.90;;;2.10;;
64210;SDS011;50528;48.514;14.394;2023-02-18T01:29:03;3.20;;;2.30;;
64210;SDS011;50528;48.514;14.394;2023-02-18T01:29:36;3.20;;;2.30;;
64210;SDS011;50528;48.514;14.394;2023-02-18T01:30:11;2.90;;;2.20;;
64210;SDS011;50528;48.514;14.394;2023-02-18T01:30:49;3.30;;;2.20;;
64210;SDS011;50528;48.514;14.394;2023-02-18T01:31:24;3.10;;;2.10;;
64210;SDS011;50528;48.514;14.394;2023-02-18T01:31:57;3.60;;;2.30;;
64210;SDS011;50528;48.514;14.394;2023-02-18T01:32:31;2.90;;;2.20;;
64210;SDS011;50528;48.514;14.394;2023-02-18T01:33:05;3.00;;;2.30;;
64210;SDS011;50528;48.514;14.394;2023-02-18T01:33:39;3.60;;;2.10;;
64210;SDS011;50528;48.514;14.394;2023-02-18T01:34:13;2.90;;;1.90;;
64210;SDS011;50528;48.514;14.394;2023-02-18T01:34:47;3.20;;;2.30;;
64210;SDS011;50528;48.514;14.394;2023-02-18T01:35:21;3.80;;;2.30;;
64210;SDS011;50528;48.514;14.394;2023-02-18T01:35:54;3.90;;;2.30;;
64210;SDS011;50528;48.514;14.394;2023-02-18T01:36:31;3.00;;;2.10;;
64210;SDS011;50528;48.514;14.394;2023-02-18T01:37:05;3.40;;;2.50;;
64210;SDS011;50528;48.514;14.394;2023-02-18T01:37:40;3.20;;;2.60;;
64210;SDS011;50528;48.514;14.394;2023-02-18T01:38:14;3.70;;;2.50;;
64210;SDS011;50528;48.514;14.394;2023-02-18T01:38:48;3.50;;;2.60;;
64210;SDS011;50528;48.514;14.394;2023-02-18T01:39:22;4.10;;;2.50;;
64210;SDS011;50528;48.514;14.394;2023-02-18T01:39:56;3.90;;;2.40;;
64210;SDS011;50528;48.514;14.394;2023-02-18T01:40:30;3.40;;;2.30;;
64210;SDS011;50528;48.514;14.394;2023-02-18T01:41:05;3.10;;;2.30;;
64210;SDS011;50528;48.514;14.394;2023-02-18T01:41:39;4.00;;;2.50;;
64210;SDS011;50528;48.514;14.394;2023-02-18T01:42:17;3.20;;;2.70;;
64210;SDS011;50528;48.514;14.394;2023-02-18T01:42:56;3.10;;;2.20;;
64210;SDS011;50528;48.514;14.394;2023-02-18T01:43:30;4.50;;;2.50;;
64210;SDS011;50528;48.514;14.394;2023-02-18T01:44:16;3.70;;;2.60;;
64210;SDS011;50528;48.514;14.394;2023-02-18T01:46:16;3.50;;;2.70;;
64210;SDS011;50528;48.514;14.394;2023-02-18T01:46:53;3.30;;;2.80;;
64210;SDS011;50528;48.514;14.394;2023-02-18T01:47:27;3.20;;;2.40;;
64210;SDS011;50528;48.514;14.394;2023-02-18T01:48:06;3.30;;;2.10;;
64210;SDS011;50528;48.514;14.394;2023-02-18T01:49:27;3.80;;;2.60;;
64210;SDS011;50528;48.514;14.394;2023-02-18T01:50:04;4.50;;;2.80;;
64210;SDS011;50528;48.514;14.394;2023-02-18T01:50:39;3.80;;;3.00;;
64210;SDS011;50528;48.514;14.394;2023-02-18T01:51:22;3.80;;;2.60;;
64210;SDS011;50528;48.514;14.394;2023-02-18T01:52:04;3.60;;;2.60;;
64210;SDS011;50528;48.514;14.394;2023-02-18T01:52:41;3.60;;;2.70;;
64210;SDS011;50528;48.514;14.394;2023-02-18T01:53:16;3.60;;;2.80;;
64210;SDS011;50528;48.514;14.394;2023-02-18T01:53:55;3.70;;;2.90;;
64210;SDS011;50528;48.514;14.394;2023-02-18T01:54:53;3.50;;;2.70;;
64210;SDS011;50528;48.514;14.394;2023-02-18T01:55:33;4.40;;;2.70;;
64210;SDS011;50528;48.514;14.394;2023-02-18T01:56:09;4.30;;;3.20;;
64210;SDS011;50528;48.514;14.394;2023-02-18T01:57:03;3.70;;;3.00;;
64210;SDS011;50528;48.514;14.394;2023-02-18T01:57:40;3.90;;;2.70;;
64210;SDS011;50528;48.514;14.394;2023-02-18T01:58:14;4.10;;;3.20;;
64210;SDS011;50528;48.514;14.394;2023-02-18T01:58:48;4.20;;;2.90;;
64210;SDS011;50528;48.514;14.394;2023-02-18T01:59:24;3.50;;;2.70;;
64210;SDS011;50528;48.514;14.394;2023-02-18T02:00:05;5.40;;;3.30;;
64210;SDS011;50528;48.514;14.394;2023-02-18T02:00:47;4.40;;;3.40;;
64210;SDS011;50528;48.514;14.394;2023-02-18T02:01:20;4.10;;;3.50;;
64210;SDS011;50528;48.514;14.394;2023-02-18T02:01:56;6.30;;;3.50;;
64210;SDS011;50528;48.514;14.394;2023-02-18T02:02:30;5.50;;;3.30;;
64210;SDS011;50528;48.514;14.394;2023-02-18T02:03:08;3.60;;;2.70;;
64210;SDS011;50528;48.514;14.394;2023-02-18T02:03:42;4.50;;;3.30;;
64210;SDS011;50528;48.514;14.394;2023-02-18T02:04:15;4.10;;;3.20;;
64210;SDS011;50528;48.514;14.394;2023-02-18T02:04:50;4.20;;;3.30;;
64210;SDS011;50528;48.514;14.394;2023-02-18T02:05:28;3.60;;;2.60;;
64210;SDS011;50528;48.514;14.394;2023-02-18T02:06:05;4.10;;;3.20;;
64210;SDS011;50528;48.514;14.394;2023-02-18T02:06:45;3.40;;;2.80;;
64210;SDS011;50528;48.514;14.394;2023-02-18T02:07:19;4.60;;;2.70;;
64210;SDS011;50528;48.514;14.394;2023-02-18T02:07:59;4.40;;;3.10;;
64210;SDS011;50528;48.514;14.394;2023-02-18T02:08:34;4.90;;;3.20;;
64210;SDS011;50528;48.514;14.394;2023-02-18T02:09:09;3.90;;;3.20;;
64210;SDS011;50528;48.514;14.394;2023-02-18T02:09:45;4.00;;;3.10;;
64210;SDS011;50528;48.514;14.394;2023-02-18T02:10:21;4.20;;;3.30;;
64210;SDS011;50528;48.514;14.394;2023-02-18T02:11:03;4.40;;;3.10;;
64210;SDS011;50528;48.514;14.394;2023-02-18T02:12:35;4.00;;;2.80;;
64210;SDS011;50528;48.514;14.394;2023-02-18T02:13:20;5.30;;;3.00;;
64210;SDS011;50528;48.514;14.394;2023-02-18T02:15:45;3.30;;;2.40;;
64210;SDS011;50528;48.514;14.394;2023-02-18T02:18:43;4.50;;;3.00;;
64210;SDS011;50528;48.514;14.394;2023-02-18T02:31:46;3.60;;;2.60;;
64210;SDS011;50528;48.514;14.394;2023-02-18T02:35:24;3.40;;;2.10;;
64210;SDS011;50528;48.514;14.394;2023-02-18T02:36:04;3.40;;;2.60;;
64210;SDS011;50528;48.514;14.394;2023-02-18T02:37:51;4.00;;;2.80;;
64210;SDS011;50528;48.514;14.394;2023-02-18T02:39:35;3.60;;;2.90;;
64210;SDS011;50528;48.514;14.394;2023-02-18T02:40:56;3.50;;;2.20;;
64210;SDS011;50528;48.514;14.394;2023-02-18T02:43:29;3.30;;;2.60;;
64210;SDS011;50528;48.514;14.394;2023-02-18T02:44:46;4.20;;;2.40;;
64210;SDS011;50528;48.514;14.394;2023-02-18T02:46:16;3.50;;;1.90;;
64210;SDS011;50528;48.514;14.394;2023-02-18T02:46:56;3.60;;;2.40;;
64210;SDS011;50528;48.514;14.394;2023-02-18T02:48:46;3.30;;;2.00;;
64210;SDS011;50528;48.514;14.394;2023-02-18T02:52:34;2.90;;;1.90;;
64210;SDS011;50528;48.514;14.394;2023-02-18T02:53:18;3.00;;;2.10;;
64210;SDS011;50528;48.514;14.394;2023-02-18T02:53:57;2.90;;;2.00;;
64210;SDS011;50528;48.514;14.394;2023-02-18T02:54:47;3.30;;;2.00;;
64210;SDS011;50528;48.514;14.394;2023-02-18T02:55:22;4.40;;;2.50;;
64210;SDS011;50528;48.514;14.394;2023-02-18T02:55:57;3.00;;;2.20;;
64210;SDS011;50528;48.514;14.394;2023-02-18T02:56:31;2.90;;;2.20;;
64210;SDS011;50528;48.514;14.394;2023-02-18T02:57:40;3.20;;;2.40;;
64210;SDS011;50528;48.514;14.394;2023-02-18T02:58:16;4.10;;;2.00;;
64210;SDS011;50528;48.514;14.394;2023-02-18T02:59:03;3.60;;;2.40;;
64210;SDS011;50528;48.514;14.394;2023-02-18T02:59:46;3.50;;;2.10;;
64210;SDS011;50528;48.514;14.394;2023-02-18T03:01:32;2.90;;;1.90;;
64210;SDS011;50528;48.514;14.394;2023-02-18T03:04:59;3.20;;;2.20;;
64210;SDS011;50528;48.514;14.394;2023-02-18T03:05:59;3.30;;;1.60;;
64210;SDS011;50528;48.514;14.394;2023-02-18T03:07:28;3.70;;;2.10;;
64210;SDS011;50528;48.514;14.394;2023-02-18T03:11:22;3.10;;;2.10;;
64210;SDS011;50528;48.514;14.394;2023-02-18T03:14:30;3.30;;;2.30;;
64210;SDS011;50528;48.514;14.394;2023-02-18T03:15:28;3.40;;;2.10;;
64210;SDS011;50528;48.514;14.394;2023-02-18T03:17:04;4.00;;;2.10;;
64210;SDS011;50528;48.514;14.394;2023-02-18T03:19:48;4.10;;;2.00;;
64210;SDS011;50528;48.514;14.394;2023-02-18T03:20:35;3.10;;;2.10;;
64210;SDS011;50528;48.514;14.394;2023-02-18T03:21:15;3.50;;;1.90;;
64210;SDS011;50528;48.514;14.394;2023-02-18T03:22:06;2.70;;;1.70;;
64210;SDS011;50528;48.514;14.394;2023-02-18T03:22:45;3.40;;;2.10;;
64210;SDS011;50528;48.514;14.394;2023-02-18T03:23:24;3.60;;;1.80;;
64210;SDS011;50528;48.514;14.394;2023-02-18T03:24:10;3.00;;;2.10;;
64210;SDS011;50528;48.514;14.394;2023-02-18T03:25:00;3.00;;;2.00;;
64210;SDS011;50528;48.514;14.394;2023-02-18T03:25:36;3.20;;;2.20;;
64210;SDS011;50528;48.514;14.394;2023-02-18T03:26:12;4.20;;;2.20;;
64210;SDS011;50528;48.514;14.394;2023-02-18T03:26:51;2.70;;;1.90;;
64210;SDS011;50528;48.514;14.394;2023-02-18T03:28:23;2.80;;;1.90;;
64210;SDS011;50528;48.514;14.394;2023-02-18T03:29:06;2.90;;;2.10;;
64210;SDS011;50528;48.514;14.394;2023-02-18T03:29:44;5.80;;;2.00;;
64210;SDS011;50528;48.514;14.394;2023-02-18T03:30:24;2.70;;;1.90;;
64210;SDS011;50528;48.514;14.394;2023-02-18T03:31:06;3.00;;;2.10;;
64210;SDS011;50528;48.514;14.394;2023-02-18T03:31:43;2.50;;;1.70;;
64210;SDS011;50528;48.514;14.394;2023-02-18T03:32:21;3.60;;;2.00;;
64210;SDS011;50528;48.514;14.394;2023-02-18T03:32:59;3.00;;;2.20;;
64210;SDS011;50528;48.514;14.394;2023-02-18T03:33:39;2.80;;;1.70;;
64210;SDS011;50528;48.514;14.394;2023-02-18T03:34:21;3.30;;;1.90;;
64210;SDS011;50528;48.514;14.394;2023-02-18T03:35:10;2.60;;;1.80;;
64210;SDS011;50528;48.514;14.394;2023-02-18T03:35:47;2.60;;;1.70;;
64210;SDS011;50528;48.514;14.394;2023-02-18T03:36:22;3.30;;;2.20;;
64210;SDS011;50528;48.514;14.394;2023-02-18T03:36:57;2.70;;;1.80;;
64210;SDS011;50528;48.514;14.394;2023-02-18T03:37:33;2.90;;;2.00;;
64210;SDS011;50528;48.514;14.394;2023-02-18T03:39:06;3.50;;;2.00;;
64210;SDS011;50528;48.514;14.394;2023-02-18T03:39:47;2.70;;;1.70;;
64210;SDS011;50528;48.514;14.394;2023-02-18T03:40:23;2.50;;;1.70;;
64210;SDS011;50528;48.514;14.394;2023-02-18T03:40:57;2.70;;;1.70;;
64210;SDS011;50528;48.514;14.394;2023-02-18T03:41:31;3.20;;;2.00;;
64210;SDS011;50528;48.514;14.394;2023-02-18T03:42:06;3.20;;;1.80;;
64210;SDS011;50528;48.514;14.394;2023-02-18T03:42:40;3.20;;;1.80;;
64210;SDS011;50528;48.514;14.394;2023-02-18T03:43:14;2.70;;;2.00;;
64210;SDS011;50528;48.514;14.394;2023-02-18T03:43:54;3.50;;;1.90;;
64210;SDS011;50528;48.514;14.394;2023-02-18T03:44:33;2.80;;;1.90;;
64210;SDS011;50528;48.514;14.394;2023-02-18T03:45:06;2.60;;;2.00;;
64210;SDS011;50528;48.514;14.394;2023-02-18T03:45:40;3.20;;;2.10;;
64210;SDS011;50528;48.514;14.394;2023-02-18T03:46:14;2.90;;;1.80;;
64210;SDS011;50528;48.514;14.394;2023-02-18T03:46:48;3.20;;;2.10;;
64210;SDS011;50528;48.514;14.394;2023-02-18T03:47:23;3.30;;;1.80;;
64210;SDS011;50528;48.514;14.394;2023-02-18T03:47:56;3.30;;;2.10;;
64210;SDS011;50528;48.514;14.394;2023-02-18T03:48:30;2.70;;;1.80;;
64210;SDS011;50528;48.514;14.394;2023-02-18T03:49:04;3.10;;;2.00;;
64210;SDS011;50528;48.514;14.394;2023-02-18T03:49:38;3.90;;;2.00;;
64210;SDS011;50528;48.514;14.394;2023-02-18T03:50:11;2.60;;;1.90;;
64210;SDS011;50528;48.514;14.394;2023-02-18T03:50:45;2.80;;;1.60;;
64210;SDS011;50528;48.514;14.394;2023-02-18T03:51:19;3.50;;;2.20;;
64210;SDS011;50528;48.514;14.394;2023-02-18T03:53:13;3.80;;;2.10;;
64210;SDS011;50528;48.514;14.394;2023-02-18T03:53:48;2.80;;;1.80;;
64210;SDS011;50528;48.514;14.394;2023-02-18T03:54:22;3.20;;;2.10;;
64210;SDS011;50528;48.514;14.394;2023-02-18T03:54:56;3.10;;;2.10;;
64210;SDS011;50528;48.514;14.394;2023-02-18T03:55:29;2.50;;;1.90;;
64210;SDS011;50528;48.514;14.394;2023-02-18T03:56:03;3.00;;;1.80;;
64210;SDS011;50528;48.514;14.394;2023-02-18T03:56:37;3.20;;;2.00;;
64210;SDS011;50528;48.514;14.394;2023-02-18T03:57:11;2.70;;;1.90;;
64210;SDS011;50528;48.514;14.394;2023-02-18T03:57:45;3.60;;;1.90;;
64210;SDS011;50528;48.514;14.394;2023-02-18T03:58:18;4.70;;;2.10;;
64210;SDS011;50528;48.514;14.394;2023-02-18T03:58:52;2.70;;;1.90;;
64210;SDS011;50528;48.514;14.394;2023-02-18T03:59:25;3.90;;;2.00;;
64210;SDS011;50528;48.514;14.394;2023-02-18T03:59:59;2.70;;;2.10;;
64210;SDS011;50528;48.514;14.394;2023-02-18T04:00:45;3.10;;;1.80;;
64210;SDS011;50528;48.514;14.394;2023-02-18T04:01:18;2.50;;;1.90;;
64210;SDS011;50528;48.514;14.394;2023-02-18T04:01:52;2.90;;;1.90;;
64210;SDS011;50528;48.514;14.394;2023-02-18T04:02:25;2.40;;;1.80;;
64210;SDS011;50528;48.514;14.394;2023-02-18T04:02:59;3.60;;;1.80;;
64210;SDS011;50528;48.514;14.394;2023-02-18T04:03:33;2.70;;;2.00;;
64210;SDS011;50528;48.514;14.394;2023-02-18T04:04:06;4.40;;;2.10;;
64210;SDS011;50528;48.514;14.394;2023-02-18T04:04:40;2.30;;;1.70;;
64210;SDS011;50528;48.514;14.394;2023-02-18T04:05:14;2.80;;;2.00;;
64210;SDS011;50528;48.514;14.394;2023-02-18T04:05:47;2.50;;;1.80;;
64210;SDS011;50528;48.514;14.394;2023-02-18T04:06:21;3.10;;;2.00;;
64210;SDS011;50528;48.514;14.394;2023-02-18T04:06:55;3.90;;;2.00;;
64210;SDS011;50528;48.514;14.394;2023-02-18T04:07:29;3.20;;;1.90;;
64210;SDS011;50528;48.514;14.394;2023-02-18T04:08:02;3.40;;;2.00;;
64210;SDS011;50528;48.514;14.394;2023-02-18T04:08:37;2.70;;;1.90;;
64210;SDS011;50528;48.514;14.394;2023-02-18T04:09:11;2.70;;;1.80;;
64210;SDS011;50528;48.514;14.394;2023-02-18T04:09:44;3.20;;;1.80;;
64210;SDS011;50528;48.514;14.394;2023-02-18T04:10:18;2.80;;;1.80;;
64210;SDS011;50528;48.514;14.394;2023-02-18T04:10:52;3.60;;;2.00;;
64210;SDS011;50528;48.514;14.394;2023-02-18T04:11:26;3.40;;;1.70;;
64210;SDS011;50528;48.514;14.394;2023-02-18T04:12:00;3.00;;;2.00;;
64210;SDS011;50528;48.514;14.394;2023-02-18T04:12:33;2.70;;;1.90;;
64210;SDS011;50528;48.514;14.394;2023-02-18T04:13:07;3.70;;;1.80;;
64210;SDS011;50528;48.514;14.394;2023-02-18T04:13:40;2.60;;;1.50;;
64210;SDS011;50528;48.514;14.394;2023-02-18T04:14:14;2.70;;;2.10;;
64210;SDS011;50528;48.514;14.394;2023-02-18T04:14:48;2.70;;;1.80;;
64210;SDS011;50528;48.514;14.394;2023-02-18T04:15:23;3.50;;;1.60;;
64210;SDS011;50528;48.514;14.394;2023-02-18T04:15:57;2.80;;;2.00;;
64210;SDS011;50528;48.514;14.394;2023-02-18T04:16:31;3.20;;;1.70;;
64210;SDS011;50528;48.514;14.394;2023-02-18T04:17:05;2.70;;;1.80;;
64210;SDS011;50528;48.514;14.394;2023-02-18T04:17:39;3.00;;;1.60;;
64210;SDS011;50528;48.514;14.394;2023-02-18T04:18:12;2.90;;;1.90;;
64210;SDS011;50528;48.514;14.394;2023-02-18T04:18:46;2.40;;;1.90;;
64210;SDS011;50528;48.514;14.394;2023-02-18T04:19:20;2.70;;;1.70;;
64210;SDS011;50528;48.514;14.394;2023-02-18T04:19:53;2.50;;;1.60;;
64210;SDS011;50528;48.514;14.394;2023-02-18T04:20:29;2.60;;;2.00;;
64210;SDS011;50528;48.514;14.394;2023-02-18T04:21:03;3.30;;;2.00;;
64210;SDS011;50528;48.514;14.394;2023-02-18T04:21:37;2.60;;;1.90;;
64210;SDS011;50528;48.514;14.394;2023-02-18T04:22:11;2.50;;;1.80;;
64210;SDS011;50528;48.514;14.394;2023-02-18T04:22:44;4.20;;;1.60;;